sensor_id;sensor_type;location;lat;lon;timestamp;temperature;humidity
14749;DHT22;7466;53.574;9.976;2024-01-15T00:02:11;1.50;99.90
14749;DHT22;7466;53.574;9.976;2024-01-15T00:04:38;1.40;99.90
14749;DHT22;7466;53.574;9.976;2024-01-15T00:07:05;1.40;99.90
14749;DHT22;7466;53.574;9.976;2024-01-15T00:09:32;1.40;99.90
14749;DHT22;7466;53.574;9.976;2024-01-15T00:12:00;1.50;99.90
14749;DHT22;7466;53.574;9.976;2024-01-15T00:14:28;1.40;99.90
14749;DHT22;7466;53.574;9.976;2024-01-15T00:16:54;1.40;99.90
14749;DHT22;7466;53.574;9.976;2024-01-15T00:19:21;1.30;99.90
14749;DHT22;7466;53.574;9.976;2024-01-15T00:21:49;1.30;99.90
14749;DHT22;7466;53.574;9.976;2024-01-15T00:24:16;1.20;99.90
14749;DHT22;7466;53.574;9.976;2024-01-15T00:26:43;1.20;99.90
14749;DHT22;7466;53.574;9.976;2024-01-15T00:29:11;1.20;99.90
14749;DHT22;7466;53.574;9.976;2024-01-15T00:31:38;1.20;99.90
14749;DHT22;7466;53.574;9.976;2024-01-15T00:34:08;1.30;99.90
14749;DHT22;7466;53.574;9.976;2024-01-15T00:36:35;1.30;99.90
14749;DHT22;7466;53.574;9.976;2024-01-15T00:39:02;1.30;99.90
14749;DHT22;7466;53.574;9.976;2024-01-15T00:41:30;1.40;99.90
14749;DHT22;7466;53.574;9.976;2024-01-15T00:43:59;1.40;99.90
14749;DHT22;7466;53.574;9.976;2024-01-15T00:46:27;1.40;99.90
14749;DHT22;7466;53.574;9.976;2024-01-15T00:48:55;1.40;99.90
14749;DHT22;7466;53.574;9.976;2024-01-15T00:51:36;1.40;99.90
14749;DHT22;7466;53.574;9.976;2024-01-15T00:54:02;1.40;99.90
14749;DHT22;7466;53.574;9.976;2024-01-15T00:56:31;1.40;99.90
14749;DHT22;7466;53.574;9.976;2024-01-15T00:59:00;1.40;99.90
14749;DHT22;7466;53.574;9.976;2024-01-15T01:01:28;1.30;99.90
14749;DHT22;7466;53.574;9.976;2024-01-15T01:03:55;1.20;99.90
14749;DHT22;7466;53.574;9.976;2024-01-15T01:06:31;1.20;99.90
14749;DHT22;7466;53.574;9.976;2024-01-15T01:08:57;1.20;99.90
14749;DHT22;7466;53.574;9.976;2024-01-15T01:11:24;1.30;99.90
14749;DHT22;7466;53.574;9.976;2024-01-15T01:13:51;1.30;99.90
14749;DHT22;7466;53.574;9.976;2024-01-15T01:16:20;1.30;99.90
14749;DHT22;7466;53.574;9.976;2024-01-15T01:18:50;1.40;99.90
14749;DHT22;7466;53.574;9.976;2024-01-15T01:21:17;1.40;99.90
14749;DHT22;7466;53.574;9.976;2024-01-15T01:23:44;1.40;99.90
14749;DHT22;7466;53.574;9.976;2024-01-15T01:26:15;1.50;99.90
14749;DHT22;7466;53.574;9.976;2024-01-15T01:28:42;1.60;99.90
14749;DHT22;7466;53.574;9.976;2024-01-15T01:31:09;1.60;99.90
14749;DHT22;7466;53.574;9.976;2024-01-15T01:33:35;1.70;99.90
14749;DHT22;7466;53.574;9.976;2024-01-15T01:36:08;1.70;99.90
14749;DHT22;7466;53.574;9.976;2024-01-15T01:38:36;1.70;99.90
14749;DHT22;7466;53.574;9.976;2024-01-15T01:41:08;1.70;99.90
14749;DHT22;7466;53.574;9.976;2024-01-15T01:43:36;1.70;99.90
14749;DHT22;7466;53.574;9.976;2024-01-15T01:46:03;1.80;99.90
14749;DHT22;7466;53.574;9.976;2024-01-15T01:48:30;1.70;99.90
14749;DHT22;7466;53.574;9.976;2024-01-15T01:51:00;1.70;99.90
14749;DHT22;7466;53.574;9.976;2024-01-15T01:53:37;1.80;99.90
14749;DHT22;7466;53.574;9.976;2024-01-15T01:56:23;1.70;99.90
14749;DHT22;7466;53.574;9.976;2024-01-15T01:58:51;1.70;99.90
14749;DHT22;7466;53.574;9.976;2024-01-15T02:01:18;1.70;99.90
14749;DHT22;7466;53.574;9.976;2024-01-15T02:03:45;1.70;99.90
14749;DHT22;7466;53.574;9.976;2024-01-15T02:06:13;1.60;99.90
14749;DHT22;7466;53.574;9.976;2024-01-15T02:08:43;1.60;99.90
14749;DHT22;7466;53.574;9.976;2024-01-15T02:11:11;1.60;99.90
14749;DHT22;7466;53.574;9.976;2024-01-15T02:13:41;1.60;99.90
14749;DHT22;7466;53.574;9.976;2024-01-15T02:16:10;1.60;99.90
14749;DHT22;7466;53.574;9.976;2024-01-15T02:18:41;1.50;99.90
14749;DHT22;7466;53.574;9.976;2024-01-15T02:21:08;1.40;99.90
14749;DHT22;7466;53.574;9.976;2024-01-15T02:23:38;1.50;99.90
14749;DHT22;7466;53.574;9.976;2024-01-15T02:26:05;1.50;99.90
14749;DHT22;7466;53.574;9.976;2024-01-15T02:28:33;1.50;99.90
14749;DHT22;7466;53.574;9.976;2024-01-15T02:31:00;1.50;99.90
14749;DHT22;7466;53.574;9.976;2024-01-15T02:33:42;1.60;99.90
14749;DHT22;7466;53.574;9.976;2024-01-15T02:36:10;1.60;99.90
14749;DHT22;7466;53.574;9.976;2024-01-15T02:38:39;1.60;99.90
14749;DHT22;7466;53.574;9.976;2024-01-15T02:41:05;1.50;99.90
14749;DHT22;7466;53.574;9.976;2024-01-15T02:43:32;1.60;99.90
14749;DHT22;7466;53.574;9.976;2024-01-15T02:45:59;1.60;99.90
14749;DHT22;7466;53.574;9.976;2024-01-15T02:48:27;1.60;99.90
14749;DHT22;7466;53.574;9.976;2024-01-15T02:50:54;1.60;99.90
14749;DHT22;7466;53.574;9.976;2024-01-15T02:53:22;1.60;99.90
14749;DHT22;7466;53.574;9.976;2024-01-15T02:55:50;1.70;99.90
14749;DHT22;7466;53.574;9.976;2024-01-15T02:58:16;1.70;99.90
14749;DHT22;7466;53.574;9.976;2024-01-15T03:00:45;1.80;99.90
14749;DHT22;7466;53.574;9.976;2024-01-15T03:03:13;1.80;99.90
14749;DHT22;7466;53.574;9.976;2024-01-15T03:05:55;1.80;99.90
14749;DHT22;7466;53.574;9.976;2024-01-15T03:08:22;1.80;99.90
14749;DHT22;7466;53.574;9.976;2024-01-15T03:11:05;1.80;99.90
14749;DHT22;7466;53.574;9.976;2024-01-15T03:13:35;1.80;99.90
14749;DHT22;7466;53.574;9.976;2024-01-15T03:16:03;1.90;99.90
14749;DHT22;7466;53.574;9.976;2024-01-15T03:18:32;1.90;99.90
14749;DHT22;7466;53.574;9.976;2024-01-15T03:20:59;1.90;99.90
14749;DHT22;7466;53.574;9.976;2024-01-15T03:23:27;1.90;99.90
14749;DHT22;7466;53.574;9.976;2024-01-15T03:25:55;1.80;99.90
14749;DHT22;7466;53.574;9.976;2024-01-15T03:28:24;1.80;99.90
14749;DHT22;7466;53.574;9.976;2024-01-15T03:30:51;1.80;99.90
14749;DHT22;7466;53.574;9.976;2024-01-15T03:33:18;1.80;99.90
14749;DHT22;7466;53.574;9.976;2024-01-15T03:35:44;1.80;99.90
14749;DHT22;7466;53.574;9.976;2024-01-15T03:38:11;1.90;99.90
14749;DHT22;7466;53.574;9.976;2024-01-15T03:40:38;1.80;99.90
14749;DHT22;7466;53.574;9.976;2024-01-15T03:43:06;1.80;99.90
14749;DHT22;7466;53.574;9.976;2024-01-15T03:45:34;1.80;99.90
14749;DHT22;7466;53.574;9.976;2024-01-15T03:48:02;1.80;99.90
14749;DHT22;7466;53.574;9.976;2024-01-15T03:50:33;1.70;99.90
14749;DHT22;7466;53.574;9.976;2024-01-15T03:53:00;1.70;99.90
14749;DHT22;7466;53.574;9.976;2024-01-15T03:55:27;1.70;99.90
14749;DHT22;7466;53.574;9.976;2024-01-15T03:57:53;1.70;99.90
14749;DHT22;7466;53.574;9.976;2024-01-15T04:00:20;1.70;99.90
14749;DHT22;7466;53.574;9.976;2024-01-15T04:02:48;1.60;99.90
14749;DHT22;7466;53.574;9.976;2024-01-15T04:05:17;1.70;99.90
14749;DHT22;7466;53.574;9.976;2024-01-15T04:07:44;1.70;99.90
14749;DHT22;7466;53.574;9.976;2024-01-15T04:10:11;1.70;99.90
14749;DHT22;7466;53.574;9.976;2024-01-15T04:12:38;1.70;99.90
14749;DHT22;7466;53.574;9.976;2024-01-15T04:15:06;1.70;99.90
14749;DHT22;7466;53.574;9.976;2024-01-15T04:17:34;1.70;99.90
14749;DHT22;7466;53.574;9.976;2024-01-15T04:20:06;1.90;99.90
14749;DHT22;7466;53.574;9.976;2024-01-15T04:22:34;1.80;99.90
14749;DHT22;7466;53.574;9.976;2024-01-15T04:25:01;1.80;99.90
14749;DHT22;7466;53.574;9.976;2024-01-15T04:27:28;1.90;99.90
14749;DHT22;7466;53.574;9.976;2024-01-15T04:29:56;1.90;99.90
14749;DHT22;7466;53.574;9.976;2024-01-15T04:32:29;1.80;99.90
14749;DHT22;7466;53.574;9.976;2024-01-15T04:34:56;1.80;99.90
14749;DHT22;7466;53.574;9.976;2024-01-15T04:37:24;1.90;99.90
14749;DHT22;7466;53.574;9.976;2024-01-15T04:39:51;2.00;99.90
14749;DHT22;7466;53.574;9.976;2024-01-15T04:42:20;2.10;99.90
14749;DHT22;7466;53.574;9.976;2024-01-15T04:44:47;2.10;99.90
14749;DHT22;7466;53.574;9.976;2024-01-15T04:47:14;2.10;99.90
14749;DHT22;7466;53.574;9.976;2024-01-15T04:49:40;2.20;99.90
14749;DHT22;7466;53.574;9.976;2024-01-15T04:52:07;2.20;99.90
14749;DHT22;7466;53.574;9.976;2024-01-15T04:54:37;2.10;99.90
14749;DHT22;7466;53.574;9.976;2024-01-15T04:57:04;2.10;99.90
14749;DHT22;7466;53.574;9.976;2024-01-15T04:59:30;2.10;99.90
14749;DHT22;7466;53.574;9.976;2024-01-15T05:01:57;2.00;99.90
14749;DHT22;7466;53.574;9.976;2024-01-15T05:04:24;2.00;99.90
14749;DHT22;7466;53.574;9.976;2024-01-15T05:06:51;1.90;99.90
14749;DHT22;7466;53.574;9.976;2024-01-15T05:09:18;1.90;99.90
14749;DHT22;7466;53.574;9.976;2024-01-15T05:11:49;1.90;99.90
14749;DHT22;7466;53.574;9.976;2024-01-15T05:14:16;1.90;99.90
14749;DHT22;7466;53.574;9.976;2024-01-15T05:16:46;1.80;99.90
14749;DHT22;7466;53.574;9.976;2024-01-15T05:19:16;1.80;99.90
14749;DHT22;7466;53.574;9.976;2024-01-15T05:21:45;1.80;99.90
14749;DHT22;7466;53.574;9.976;2024-01-15T05:24:15;1.80;99.90
14749;DHT22;7466;53.574;9.976;2024-01-15T05:26:43;1.80;99.90
14749;DHT22;7466;53.574;9.976;2024-01-15T05:29:11;1.70;99.90
14749;DHT22;7466;53.574;9.976;2024-01-15T05:31:38;1.70;99.90
14749;DHT22;7466;53.574;9.976;2024-01-15T05:34:04;1.80;99.90
14749;DHT22;7466;53.574;9.976;2024-01-15T05:36:31;1.80;99.90
14749;DHT22;7466;53.574;9.976;2024-01-15T05:38:58;1.80;99.90
14749;DHT22;7466;53.574;9.976;2024-01-15T05:41:33;1.80;99.90
14749;DHT22;7466;53.574;9.976;2024-01-15T05:44:00;1.80;99.90
14749;DHT22;7466;53.574;9.976;2024-01-15T05:46:28;1.80;99.90
14749;DHT22;7466;53.574;9.976;2024-01-15T05:48:55;1.80;99.90
14749;DHT22;7466;53.574;9.976;2024-01-15T05:51:30;1.80;99.90
14749;DHT22;7466;53.574;9.976;2024-01-15T05:53:57;1.80;99.90
14749;DHT22;7466;53.574;9.976;2024-01-15T05:56:23;1.70;99.90
14749;DHT22;7466;53.574;9.976;2024-01-15T05:58:51;1.80;99.90
14749;DHT22;7466;53.574;9.976;2024-01-15T06:01:18;1.80;99.90
14749;DHT22;7466;53.574;9.976;2024-01-15T06:03:46;1.80;99.90
14749;DHT22;7466;53.574;9.976;2024-01-15T06:06:13;1.70;99.90
14749;DHT22;7466;53.574;9.976;2024-01-15T06:08:40;1.70;99.90
14749;DHT22;7466;53.574;9.976;2024-01-15T06:11:07;1.70;99.90
14749;DHT22;7466;53.574;9.976;2024-01-15T06:13:34;1.80;99.90
14749;DHT22;7466;53.574;9.976;2024-01-15T06:16:01;1.80;99.90
14749;DHT22;7466;53.574;9.976;2024-01-15T06:18:27;1.80;99.90
14749;DHT22;7466;53.574;9.976;2024-01-15T06:20:55;1.80;99.90
14749;DHT22;7466;53.574;9.976;2024-01-15T06:23:22;1.80;99.90
14749;DHT22;7466;53.574;9.976;2024-01-15T06:25:49;1.80;99.90
14749;DHT22;7466;53.574;9.976;2024-01-15T06:28:16;1.80;99.90
14749;DHT22;7466;53.574;9.976;2024-01-15T06:30:42;1.80;99.90
14749;DHT22;7466;53.574;9.976;2024-01-15T06:33:09;1.80;99.90
14749;DHT22;7466;53.574;9.976;2024-01-15T06:35:36;1.80;99.90
14749;DHT22;7466;53.574;9.976;2024-01-15T06:38:04;1.80;99.90
14749;DHT22;7466;53.574;9.976;2024-01-15T06:40:31;1.80;99.90
14749;DHT22;7466;53.574;9.976;2024-01-15T06:42:58;1.80;99.90
14749;DHT22;7466;53.574;9.976;2024-01-15T06:45:25;1.80;99.90
14749;DHT22;7466;53.574;9.976;2024-01-15T06:47:52;1.90;99.90
14749;DHT22;7466;53.574;9.976;2024-01-15T06:50:19;1.90;99.90
14749;DHT22;7466;53.574;9.976;2024-01-15T06:52:45;1.90;99.90
14749;DHT22;7466;53.574;9.976;2024-01-15T06:55:19;2.00;99.90
14749;DHT22;7466;53.574;9.976;2024-01-15T06:57:47;2.10;99.90
14749;DHT22;7466;53.574;9.976;2024-01-15T07:00:15;2.10;99.90
14749;DHT22;7466;53.574;9.976;2024-01-15T07:02:42;2.10;99.90
14749;DHT22;7466;53.574;9.976;2024-01-15T07:05:14;2.20;99.90
14749;DHT22;7466;53.574;9.976;2024-01-15T07:07:41;2.10;99.90
14749;DHT22;7466;53.574;9.976;2024-01-15T07:10:09;2.10;99.90
14749;DHT22;7466;53.574;9.976;2024-01-15T07:12:37;2.00;99.90
14749;DHT22;7466;53.574;9.976;2024-01-15T07:15:04;2.00;99.90
14749;DHT22;7466;53.574;9.976;2024-01-15T07:17:33;2.00;99.90
14749;DHT22;7466;53.574;9.976;2024-01-15T07:20:03;1.90;99.90
14749;DHT22;7466;53.574;9.976;2024-01-15T07:22:33;2.00;99.90
14749;DHT22;7466;53.574;9.976;2024-01-15T07:25:15;2.00;99.90
14749;DHT22;7466;53.574;9.976;2024-01-15T07:27:52;1.90;99.90
14749;DHT22;7466;53.574;9.976;2024-01-15T07:30:27;2.00;99.90
14749;DHT22;7466;53.574;9.976;2024-01-15T07:32:54;2.00;99.90
14749;DHT22;7466;53.574;9.976;2024-01-15T07:35:23;2.00;99.90
14749;DHT22;7466;53.574;9.976;2024-01-15T07:37:51;2.10;99.90
14749;DHT22;7466;53.574;9.976;2024-01-15T07:40:32;2.10;99.90
14749;DHT22;7466;53.574;9.976;2024-01-15T07:43:01;2.20;99.90
14749;DHT22;7466;53.574;9.976;2024-01-15T07:45:31;2.20;99.90
14749;DHT22;7466;53.574;9.976;2024-01-15T07:47:58;2.30;99.90
14749;DHT22;7466;53.574;9.976;2024-01-15T07:50:25;2.30;99.90
14749;DHT22;7466;53.574;9.976;2024-01-15T07:52:52;2.20;99.90
14749;DHT22;7466;53.574;9.976;2024-01-15T07:55:23;2.30;99.90
14749;DHT22;7466;53.574;9.976;2024-01-15T07:57:57;2.30;99.90
14749;DHT22;7466;53.574;9.976;2024-01-15T08:00:30;2.30;99.90
14749;DHT22;7466;53.574;9.976;2024-01-15T08:02:57;2.30;99.90
14749;DHT22;7466;53.574;9.976;2024-01-15T08:05:23;2.30;99.90
14749;DHT22;7466;53.574;9.976;2024-01-15T08:07:50;2.30;99.90
14749;DHT22;7466;53.574;9.976;2024-01-15T08:10:18;2.30;99.90
14749;DHT22;7466;53.574;9.976;2024-01-15T08:12:47;2.30;99.90
14749;DHT22;7466;53.574;9.976;2024-01-15T08:15:14;2.30;99.90
14749;DHT22;7466;53.574;9.976;2024-01-15T08:17:41;2.40;99.90
14749;DHT22;7466;53.574;9.976;2024-01-15T08:20:08;2.40;99.90
14749;DHT22;7466;53.574;9.976;2024-01-15T08:22:35;2.40;99.90
14749;DHT22;7466;53.574;9.976;2024-01-15T08:25:03;2.30;99.90
14749;DHT22;7466;53.574;9.976;2024-01-15T08:27:30;2.30;99.90
14749;DHT22;7466;53.574;9.976;2024-01-15T08:29:57;2.30;99.90
14749;DHT22;7466;53.574;9.976;2024-01-15T08:32:23;2.30;99.90
14749;DHT22;7466;53.574;9.976;2024-01-15T08:34:52;2.30;99.90
14749;DHT22;7466;53.574;9.976;2024-01-15T08:37:18;2.30;99.90
14749;DHT22;7466;53.574;9.976;2024-01-15T08:39:45;2.30;99.90
14749;DHT22;7466;53.574;9.976;2024-01-15T08:42:12;2.20;99.90
14749;DHT22;7466;53.574;9.976;2024-01-15T08:44:39;2.20;99.90
14749;DHT22;7466;53.574;9.976;2024-01-15T08:47:07;2.10;99.90
14749;DHT22;7466;53.574;9.976;2024-01-15T08:49:34;2.10;99.90
14749;DHT22;7466;53.574;9.976;2024-01-15T08:52:03;2.00;99.90
14749;DHT22;7466;53.574;9.976;2024-01-15T08:54:30;2.00;99.90
14749;DHT22;7466;53.574;9.976;2024-01-15T08:56:57;1.90;99.90
14749;DHT22;7466;53.574;9.976;2024-01-15T08:59:23;1.80;99.90
14749;DHT22;7466;53.574;9.976;2024-01-15T09:01:51;1.90;99.90
14749;DHT22;7466;53.574;9.976;2024-01-15T09:04:18;1.80;99.90
14749;DHT22;7466;53.574;9.976;2024-01-15T09:06:45;1.80;99.90
14749;DHT22;7466;53.574;9.976;2024-01-15T09:09:13;1.80;99.90
14749;DHT22;7466;53.574;9.976;2024-01-15T09:11:42;1.80;99.90
14749;DHT22;7466;53.574;9.976;2024-01-15T09:14:09;1.80;99.90
14749;DHT22;7466;53.574;9.976;2024-01-15T09:16:36;1.80;99.90
14749;DHT22;7466;53.574;9.976;2024-01-15T09:19:03;1.80;99.90
14749;DHT22;7466;53.574;9.976;2024-01-15T09:21:31;1.90;99.90
14749;DHT22;7466;53.574;9.976;2024-01-15T09:23:59;1.80;99.90
14749;DHT22;7466;53.574;9.976;2024-01-15T09:26:27;1.80;99.90
14749;DHT22;7466;53.574;9.976;2024-01-15T09:28:54;1.70;99.90
14749;DHT22;7466;53.574;9.976;2024-01-15T09:31:22;1.80;99.90
14749;DHT22;7466;53.574;9.976;2024-01-15T09:33:49;1.80;99.90
14749;DHT22;7466;53.574;9.976;2024-01-15T09:36:18;1.80;99.90
14749;DHT22;7466;53.574;9.976;2024-01-15T09:38:48;1.80;99.90
14749;DHT22;7466;53.574;9.976;2024-01-15T09:41:15;1.90;99.90
14749;DHT22;7466;53.574;9.976;2024-01-15T09:43:43;1.90;99.90
14749;DHT22;7466;53.574;9.976;2024-01-15T09:46:11;1.90;99.90
14749;DHT22;7466;53.574;9.976;2024-01-15T09:48:38;1.90;99.90
14749;DHT22;7466;53.574;9.976;2024-01-15T09:51:06;1.90;99.90
14749;DHT22;7466;53.574;9.976;2024-01-15T09:53:34;1.80;99.90
14749;DHT22;7466;53.574;9.976;2024-01-15T09:56:03;1.70;99.90
14749;DHT22;7466;53.574;9.976;2024-01-15T09:58:31;1.50;99.90
14749;DHT22;7466;53.574;9.976;2024-01-15T10:01:00;1.30;99.90
14749;DHT22;7466;53.574;9.976;2024-01-15T10:03:28;1.30;99.90
14749;DHT22;7466;53.574;9.976;2024-01-15T10:05:56;1.30;99.90
14749;DHT22;7466;53.574;9.976;2024-01-15T10:08:25;1.30;99.90
14749;DHT22;7466;53.574;9.976;2024-01-15T10:10:52;1.30;99.90
14749;DHT22;7466;53.574;9.976;2024-01-15T10:13:19;1.30;99.90
14749;DHT22;7466;53.574;9.976;2024-01-15T10:15:47;1.20;99.90
14749;DHT22;7466;53.574;9.976;2024-01-15T10:18:15;1.30;99.90
14749;DHT22;7466;53.574;9.976;2024-01-15T10:20:42;1.30;99.90
14749;DHT22;7466;53.574;9.976;2024-01-15T10:23:09;1.40;99.90
14749;DHT22;7466;53.574;9.976;2024-01-15T10:25:36;1.30;99.90
14749;DHT22;7466;53.574;9.976;2024-01-15T10:28:03;1.40;99.90
14749;DHT22;7466;53.574;9.976;2024-01-15T10:30:32;1.40;99.90
14749;DHT22;7466;53.574;9.976;2024-01-15T10:32:59;1.40;99.90
14749;DHT22;7466;53.574;9.976;2024-01-15T10:35:29;1.40;99.90
14749;DHT22;7466;53.574;9.976;2024-01-15T10:37:56;1.50;99.90
14749;DHT22;7466;53.574;9.976;2024-01-15T10:40:23;1.50;99.90
14749;DHT22;7466;53.574;9.976;2024-01-15T10:42:50;1.50;99.90
14749;DHT22;7466;53.574;9.976;2024-01-15T10:45:18;1.50;99.90
14749;DHT22;7466;53.574;9.976;2024-01-15T10:47:44;1.50;99.90
14749;DHT22;7466;53.574;9.976;2024-01-15T10:50:12;1.50;99.90
14749;DHT22;7466;53.574;9.976;2024-01-15T10:52:41;1.50;99.90
14749;DHT22;7466;53.574;9.976;2024-01-15T10:55:09;1.40;99.90
14749;DHT22;7466;53.574;9.976;2024-01-15T10:57:37;1.30;99.90
14749;DHT22;7466;53.574;9.976;2024-01-15T11:00:05;1.20;99.90
14749;DHT22;7466;53.574;9.976;2024-01-15T11:02:32;1.20;99.90
14749;DHT22;7466;53.574;9.976;2024-01-15T11:05:01;1.20;99.90
14749;DHT22;7466;53.574;9.976;2024-01-15T11:07:30;1.10;99.90
14749;DHT22;7466;53.574;9.976;2024-01-15T11:09:58;1.20;99.90
14749;DHT22;7466;53.574;9.976;2024-01-15T11:12:25;1.20;99.90
14749;DHT22;7466;53.574;9.976;2024-01-15T11:14:52;1.20;99.90
14749;DHT22;7466;53.574;9.976;2024-01-15T11:17:20;1.20;99.90
14749;DHT22;7466;53.574;9.976;2024-01-15T11:19:48;1.20;99.90
14749;DHT22;7466;53.574;9.976;2024-01-15T11:22:49;1.20;99.90
14749;DHT22;7466;53.574;9.976;2024-01-15T11:25:20;1.20;99.90
14749;DHT22;7466;53.574;9.976;2024-01-15T11:27:50;1.20;99.90
14749;DHT22;7466;53.574;9.976;2024-01-15T11:30:25;1.20;99.90
14749;DHT22;7466;53.574;9.976;2024-01-15T11:32:52;1.30;99.90
14749;DHT22;7466;53.574;9.976;2024-01-15T11:35:18;1.30;99.90
14749;DHT22;7466;53.574;9.976;2024-01-15T11:37:58;1.30;99.90
14749;DHT22;7466;53.574;9.976;2024-01-15T11:40:39;1.40;99.90
14749;DHT22;7466;53.574;9.976;2024-01-15T11:43:08;1.40;99.90
14749;DHT22;7466;53.574;9.976;2024-01-15T11:45:36;1.40;99.90
14749;DHT22;7466;53.574;9.976;2024-01-15T11:48:13;1.40;99.90
14749;DHT22;7466;53.574;9.976;2024-01-15T11:50:43;1.40;99.90
14749;DHT22;7466;53.574;9.976;2024-01-15T11:53:32;1.50;99.90
14749;DHT22;7466;53.574;9.976;2024-01-15T11:56:02;1.40;99.90
14749;DHT22;7466;53.574;9.976;2024-01-15T11:58:29;1.40;99.90
14749;DHT22;7466;53.574;9.976;2024-01-15T12:01:03;1.30;99.90
14749;DHT22;7466;53.574;9.976;2024-01-15T12:03:32;1.30;99.90
14749;DHT22;7466;53.574;9.976;2024-01-15T12:06:00;1.40;99.90
14749;DHT22;7466;53.574;9.976;2024-01-15T12:08:27;1.30;99.90
14749;DHT22;7466;53.574;9.976;2024-01-15T12:10:54;1.40;99.90
14749;DHT22;7466;53.574;9.976;2024-01-15T12:13:22;1.40;99.90
14749;DHT22;7466;53.574;9.976;2024-01-15T12:15:48;1.40;99.90
14749;DHT22;7466;53.574;9.976;2024-01-15T12:18:17;1.30;99.90
14749;DHT22;7466;53.574;9.976;2024-01-15T12:20:45;1.30;99.90
14749;DHT22;7466;53.574;9.976;2024-01-15T12:23:17;1.30;99.90
14749;DHT22;7466;53.574;9.976;2024-01-15T12:25:44;1.30;99.90
14749;DHT22;7466;53.574;9.976;2024-01-15T12:28:11;1.30;99.90
14749;DHT22;7466;53.574;9.976;2024-01-15T12:30:39;1.30;99.90
14749;DHT22;7466;53.574;9.976;2024-01-15T12:33:11;1.30;99.90
14749;DHT22;7466;53.574;9.976;2024-01-15T12:35:40;1.30;99.90
14749;DHT22;7466;53.574;9.976;2024-01-15T12:38:10;1.30;99.90
14749;DHT22;7466;53.574;9.976;2024-01-15T12:40:37;1.30;99.90
14749;DHT22;7466;53.574;9.976;2024-01-15T12:43:05;1.30;99.90
14749;DHT22;7466;53.574;9.976;2024-01-15T12:45:33;1.30;99.90
14749;DHT22;7466;53.574;9.976;2024-01-15T12:48:05;1.30;99.90
14749;DHT22;7466;53.574;9.976;2024-01-15T12:50:33;1.40;99.90
14749;DHT22;7466;53.574;9.976;2024-01-15T12:53:01;1.30;99.90
14749;DHT22;7466;53.574;9.976;2024-01-15T12:55:28;1.30;99.90
14749;DHT22;7466;53.574;9.976;2024-01-15T12:57:54;1.30;99.90
14749;DHT22;7466;53.574;9.976;2024-01-15T13:00:21;1.20;99.90
14749;DHT22;7466;53.574;9.976;2024-01-15T13:02:48;1.20;99.90
14749;DHT22;7466;53.574;9.976;2024-01-15T13:05:17;1.30;99.90
14749;DHT22;7466;53.574;9.976;2024-01-15T13:07:45;1.30;99.90
14749;DHT22;7466;53.574;9.976;2024-01-15T13:10:12;1.30;99.90
14749;DHT22;7466;53.574;9.976;2024-01-15T13:12:40;1.30;99.90
14749;DHT22;7466;53.574;9.976;2024-01-15T13:15:07;1.40;99.90
14749;DHT22;7466;53.574;9.976;2024-01-15T13:17:38;1.40;99.90
14749;DHT22;7466;53.574;9.976;2024-01-15T13:20:06;1.40;99.90
14749;DHT22;7466;53.574;9.976;2024-01-15T13:22:35;1.40;99.90
14749;DHT22;7466;53.574;9.976;2024-01-15T13:25:05;1.30;99.90
14749;DHT22;7466;53.574;9.976;2024-01-15T13:27:33;1.40;99.90
14749;DHT22;7466;53.574;9.976;2024-01-15T13:30:04;1.40;99.90
14749;DHT22;7466;53.574;9.976;2024-01-15T13:32:38;1.40;99.90
14749;DHT22;7466;53.574;9.976;2024-01-15T13:35:05;1.40;99.90
14749;DHT22;7466;53.574;9.976;2024-01-15T13:37:36;1.50;99.90
14749;DHT22;7466;53.574;9.976;2024-01-15T13:40:04;1.40;99.90
14749;DHT22;7466;53.574;9.976;2024-01-15T13:42:32;1.40;99.90
14749;DHT22;7466;53.574;9.976;2024-01-15T13:44:59;1.40;99.90
14749;DHT22;7466;53.574;9.976;2024-01-15T13:47:26;1.40;99.90
14749;DHT22;7466;53.574;9.976;2024-01-15T13:49:56;1.40;99.90
14749;DHT22;7466;53.574;9.976;2024-01-15T13:52:24;1.50;99.90
14749;DHT22;7466;53.574;9.976;2024-01-15T13:54:54;1.30;99.90
14749;DHT22;7466;53.574;9.976;2024-01-15T13:57:21;1.40;99.90
14749;DHT22;7466;53.574;9.976;2024-01-15T13:59:49;1.40;99.90
14749;DHT22;7466;53.574;9.976;2024-01-15T14:02:16;1.40;99.90
14749;DHT22;7466;53.574;9.976;2024-01-15T14:04:43;1.40;99.90
14749;DHT22;7466;53.574;9.976;2024-01-15T14:07:15;1.30;99.90
14749;DHT22;7466;53.574;9.976;2024-01-15T14:09:42;1.20;99.90
14749;DHT22;7466;53.574;9.976;2024-01-15T14:12:10;1.30;99.90
14749;DHT22;7466;53.574;9.976;2024-01-15T14:14:43;1.40;99.90
14749;DHT22;7466;53.574;9.976;2024-01-15T14:17:10;1.40;99.90
14749;DHT22;7466;53.574;9.976;2024-01-15T14:19:36;1.40;99.90
14749;DHT22;7466;53.574;9.976;2024-01-15T14:22:03;1.40;99.90
14749;DHT22;7466;53.574;9.976;2024-01-15T14:24:30;1.40;99.90
14749;DHT22;7466;53.574;9.976;2024-01-15T14:27:01;1.40;99.90
14749;DHT22;7466;53.574;9.976;2024-01-15T14:29:32;1.40;99.90
14749;DHT22;7466;53.574;9.976;2024-01-15T14:31:58;1.30;99.90
14749;DHT22;7466;53.574;9.976;2024-01-15T14:34:25;1.20;99.90
14749;DHT22;7466;53.574;9.976;2024-01-15T14:36:52;1.10;99.90
14749;DHT22;7466;53.574;9.976;2024-01-15T14:39:25;1.10;99.90
14749;DHT22;7466;53.574;9.976;2024-01-15T14:41:54;1.10;99.90
14749;DHT22;7466;53.574;9.976;2024-01-15T14:44:24;1.10;99.90
14749;DHT22;7466;53.574;9.976;2024-01-15T14:46:52;1.10;99.90
14749;DHT22;7466;53.574;9.976;2024-01-15T14:49:19;1.10;99.90
14749;DHT22;7466;53.574;9.976;2024-01-15T14:51:47;1.10;99.90
14749;DHT22;7466;53.574;9.976;2024-01-15T14:54:15;1.00;99.90
14749;DHT22;7466;53.574;9.976;2024-01-15T14:56:41;1.00;99.90
14749;DHT22;7466;53.574;9.976;2024-01-15T14:59:09;1.00;99.90
14749;DHT22;7466;53.574;9.976;2024-01-15T15:01:36;0.90;99.90
14749;DHT22;7466;53.574;9.976;2024-01-15T15:04:05;0.90;99.90
14749;DHT22;7466;53.574;9.976;2024-01-15T15:06:33;0.90;99.90
14749;DHT22;7466;53.574;9.976;2024-01-15T15:09:04;0.80;99.90
14749;DHT22;7466;53.574;9.976;2024-01-15T15:11:35;0.80;99.90
14749;DHT22;7466;53.574;9.976;2024-01-15T15:14:02;0.70;99.90
14749;DHT22;7466;53.574;9.976;2024-01-15T15:16:29;0.70;99.90
14749;DHT22;7466;53.574;9.976;2024-01-15T15:19:01;0.60;99.90
14749;DHT22;7466;53.574;9.976;2024-01-15T15:21:29;0.60;99.90
14749;DHT22;7466;53.574;9.976;2024-01-15T15:23:58;0.60;99.90
14749;DHT22;7466;53.574;9.976;2024-01-15T15:26:28;0.50;99.90
14749;DHT22;7466;53.574;9.976;2024-01-15T15:28:58;0.50;99.90
14749;DHT22;7466;53.574;9.976;2024-01-15T15:31:25;0.50;99.90
14749;DHT22;7466;53.574;9.976;2024-01-15T15:33:54;0.50;99.90
14749;DHT22;7466;53.574;9.976;2024-01-15T15:36:23;0.50;99.90
14749;DHT22;7466;53.574;9.976;2024-01-15T15:38:53;0.50;99.90
14749;DHT22;7466;53.574;9.976;2024-01-15T15:41:21;0.50;99.90
14749;DHT22;7466;53.574;9.976;2024-01-15T15:43:51;0.40;99.90
14749;DHT22;7466;53.574;9.976;2024-01-15T15:46:18;0.50;99.90
14749;DHT22;7466;53.574;9.976;2024-01-15T15:48:55;0.40;99.90
14749;DHT22;7466;53.574;9.976;2024-01-15T15:51:22;0.40;99.90
14749;DHT22;7466;53.574;9.976;2024-01-15T15:54:05;0.40;99.90
14749;DHT22;7466;53.574;9.976;2024-01-15T15:56:32;0.40;99.90
14749;DHT22;7466;53.574;9.976;2024-01-15T15:59:03;0.50;99.90
14749;DHT22;7466;53.574;9.976;2024-01-15T16:01:30;0.50;99.90
14749;DHT22;7466;53.574;9.976;2024-01-15T16:03:58;0.50;99.90
14749;DHT22;7466;53.574;9.976;2024-01-15T16:06:25;0.50;99.90
14749;DHT22;7466;53.574;9.976;2024-01-15T16:08:51;0.50;99.90
14749;DHT22;7466;53.574;9.976;2024-01-15T16:11:19;0.50;99.90